Latest Weather Observations for Learmonth

IDW60801

Issued at 8:02 pm WST Sunday 2 August 2015 (issued every 30 minutes, with the page automatically refreshed every 10 minutes)

About weather observations | Map of weather stations | Latest weather observations for WA | Other Formats
Station Details ID: 005007 Name: LEARMONTH AIRPORT Lat: -22.24 Lon: 114.10 Height: 5.0 m
Data from the previous 72 hours. | See also: Recent months at Learmonth
Date/Time
WST
Temp
°C
App
Temp
°C
Dew
Point
Rel
Hum
%
Delta-T
°C
Wind Press
QNH
hPa
Press
MSL
hPa
Rain
since 9 am
mm
Dir
 
Spd
km/h
Gust
km/h
Spd
kts
Gust
kts
02/08:00pm 15.7 13.1 9.5 66 3.2 S 13 15 7 8 1019.7 - 0.0
02/07:30pm 17.0 13.6 9.3 60 4.0 SSW 17 17 9 9 1019.3 - 0.0
02/07:00pm 17.5 14.3 9.9 61 4.0 SSW 17 19 9 10 1019.0 - 0.0
02/06:30pm 19.2 15.8 9.1 52 5.3 SSW 17 19 9 10 1018.8 - 0.0
02/06:00pm 21.9 19.1 8.4 42 7.1 S 13 15 7 8 1018.6 1018.5 0.0
02/05:30pm 24.6 21.4 6.9 32 9.2 S 13 17 7 9 1018.6 - 0.0
02/05:00pm 26.2 21.9 5.2 26 10.7 S 17 22 9 12 1018.5 - 0.0
02/04:30pm 26.5 21.8 5.1 25 10.9 SSE 19 24 10 13 1018.6 - 0.0
02/04:00pm 26.7 22.1 5.8 26 10.8 SE 19 28 10 15 1018.6 - 0.0
02/03:30pm 26.5 21.8 5.1 25 10.9 SSE 19 28 10 15 1018.7 - 0.0
02/03:00pm 26.6 21.9 5.9 26 10.7 SSE 20 32 11 17 1019.0 1018.9 0.0
02/02:30pm 26.2 21.4 5.8 27 10.5 SE 20 28 11 15 1019.2 - 0.0
02/02:00pm 26.0 21.4 6.3 28 10.2 SE 20 30 11 16 1019.4 - 0.0
02/01:30pm 26.0 21.0 6.6 29 10.1 SSE 22 30 12 16 1019.8 - 0.0
02/01:00pm 25.7 20.8 7.0 30 9.8 SE 22 28 12 15 1020.3 - 0.0
02/12:30pm 25.3 20.1 7.4 32 9.4 SE 24 33 13 18 1020.6 - 0.0
02/12:00pm 24.6 19.6 8.0 34 8.8 SE 24 33 13 18 1020.9 1020.8 0.0
02/11:30am 24.2 18.7 9.2 38 8.1 SE 28 35 15 19 1021.2 - 0.0
02/11:00am 22.9 18.0 10.0 44 7.0 SE 26 33 14 18 1021.7 - 0.0
02/10:30am 22.2 17.3 10.0 46 6.6 SE 26 33 14 18 1021.9 - 0.0
02/10:00am 21.5 16.5 11.1 51 5.7 SE 28 32 15 17 1021.9 - 0.0
02/09:30am 20.1 15.9 11.1 56 4.9 SE 24 32 13 17 1022.0 - 0.0
02/09:00am 19.2 15.0 11.1 59 4.4 SSE 24 32 13 17 1021.8 1021.7 0.0
02/08:30am 17.9 14.9 12.1 69 3.2 SSE 19 30 10 16 1021.5 - 0.0
02/08:00am 14.8 13.5 12.6 87 1.2 S 11 13 6 7 1021.2 - 0.0
02/07:30am 13.0 10.6 11.3 89 0.9 SSW 15 17 8 9 1020.7 - 0.0
02/07:00am 12.3 10.2 11.0 92 0.7 SW 13 15 7 8 1020.5 - 0.0
02/06:30am 12.5 10.0 11.2 92 0.7 SW 15 17 8 9 1020.2 - 0.0
02/06:00am 12.8 10.4 11.3 91 0.8 SW 15 17 8 9 1019.9 1019.8 0.0
02/05:30am 12.9 10.6 11.6 92 0.7 SSW 15 17 8 9 1019.5 - 0.0
02/05:00am 13.4 11.1 11.9 91 0.8 SW 15 17 8 9 1019.6 - 0.0
02/04:30am 13.1 11.1 11.6 91 0.8 SW 13 17 7 9 1019.5 - 0.0
02/04:00am 13.3 11.0 11.8 91 0.8 SSW 15 17 8 9 1019.4 - 0.0
02/03:30am 13.2 11.3 11.7 91 0.8 SSW 13 15 7 8 1019.3 - 0.0
02/03:00am 13.8 11.6 12.1 89 0.9 SSW 15 17 8 9 1019.3 1019.2 0.0
02/02:30am 14.0 11.9 12.3 89 0.9 SSW 15 19 8 10 1019.6 - 0.0
02/02:00am 14.7 13.0 12.5 87 1.2 SSW 13 19 7 10 1019.9 - 0.0
02/01:30am 15.0 12.6 12.6 85 1.3 SSW 17 19 9 10 1020.0 - 0.0
02/01:00am 15.4 13.0 12.5 83 1.6 SSW 17 20 9 11 1020.0 - 0.0
02/12:30am 15.3 12.9 12.7 84 1.4 SSW 17 20 9 11 1020.0 - 0.0
02/12:00am 15.6 13.2 12.7 83 1.6 SSW 17 22 9 12 1020.0 1019.9 0.0
 
Date/Time
WST
Temp
°C
App
Temp
°C
Dew
Point
Rel
Hum
%
Delta-T
°C
Wind Press
QNH
hPa
Press
MSL
hPa
Rain
since 9 am
mm
Dir
 
Spd
km/h
Gust
km/h
Spd
kts
Gust
kts
01/11:30pm 16.0 13.3 12.9 82 1.7 SSW 19 22 10 12 1020.1 - 0.0
01/11:00pm 16.7 13.9 13.3 80 1.9 SSW 20 24 11 13 1020.0 - 0.0
01/10:30pm 17.0 14.5 14.0 82 1.7 SSW 20 26 11 14 1020.0 - 0.0
01/10:00pm 16.9 14.9 13.9 82 1.7 SSW 17 20 9 11 1019.9 - 0.0
01/09:30pm 16.7 15.0 13.7 82 1.7 SSW 15 17 8 9 1019.8 - 0.0
01/09:00pm 16.4 14.6 13.2 81 1.8 SW 15 17 8 9 1019.7 1019.6 0.0
01/08:30pm 17.2 15.3 12.9 76 2.4 SW 15 17 8 9 1019.6 - 0.0
01/08:00pm 18.0 16.4 12.8 71 2.9 SW 13 17 7 9 1019.2 - 0.0
01/07:30pm 19.0 16.6 12.5 66 3.6 SW 17 22 9 12 1018.8 - 0.0
01/07:00pm 19.3 16.9 12.5 64 3.8 SSW 17 22 9 12 1018.5 - 0.0
01/06:30pm 20.1 17.4 12.8 63 4.1 SSW 19 24 10 13 1018.2 - 0.0
01/06:00pm 21.4 18.9 12.3 56 5.1 SSW 17 22 9 12 1017.8 1017.7 0.0
01/05:30pm 23.2 23.8 15.3 61 4.7 N 6 9 3 5 1017.6 - 0.0
01/05:00pm 22.6 22.1 15.0 62 4.5 N 11 13 6 7 1017.4 - 0.0
01/04:30pm 23.3 22.2 14.3 57 5.3 N 13 19 7 10 1017.2 - 0.0
01/04:00pm 23.5 22.3 13.9 55 5.6 N 13 17 7 9 1017.3 - 0.0
01/03:30pm 24.1 22.8 14.9 56 5.5 NNE 15 19 8 10 1017.4 - 0.0
01/03:00pm 23.6 22.1 14.2 55 5.5 NNE 15 20 8 11 1017.4 1017.3 0.0
01/02:30pm 23.2 22.0 14.0 56 5.4 NE 13 20 7 11 1017.6 - 0.0
01/02:00pm 23.9 21.9 13.8 53 5.9 ENE 17 22 9 12 1017.6 - 0.0
01/01:30pm 23.3 21.4 14.1 56 5.4 NE 17 20 9 11 1017.7 - 0.0
01/01:00pm 23.9 22.1 14.4 55 5.6 NE 17 24 9 13 1018.1 - 0.0
01/12:30pm 23.6 21.3 14.2 55 5.5 ENE 19 22 10 12 1018.3 - 0.0
01/12:00pm 25.2 22.5 10.2 38 8.3 SW 15 22 8 12 1018.7 1018.6 0.0
01/11:30am 24.5 21.6 11.1 43 7.5 SSW 17 24 9 13 1019.2 - 0.0
01/11:00am 24.2 20.8 10.7 42 7.5 SSW 19 24 10 13 1019.5 - 0.0
01/10:30am 23.5 20.7 11.5 47 6.7 SW 17 33 9 18 1019.7 - 0.0
01/10:00am 23.1 20.6 12.3 50 6.1 SW 17 24 9 13 1019.8 - 0.0
01/09:30am 21.9 19.6 13.0 57 5.1 SW 17 26 9 14 1019.7 - 0.0
01/09:00am 20.4 20.2 14.6 69 3.4 SW 9 13 5 7 1019.4 1019.3 0.2
01/08:30am 18.4 19.0 15.7 84 1.6 WSW 7 9 4 5 1019.1 - 0.2
01/08:00am 16.5 17.0 15.1 91 0.8 SW 6 7 3 4 1018.7 - 0.2
01/07:30am 15.1 14.9 13.7 91 0.8 SSW 7 9 4 5 1018.5 - 0.2
01/07:00am 14.2 13.5 13.1 93 0.6 S 9 11 5 6 1018.1 - 0.0
01/06:30am 14.8 14.6 13.7 93 0.6 SSW 7 9 4 5 1017.7 - 0.0
01/06:00am 15.3 14.1 14.1 92 0.7 SW 13 15 7 8 1017.4 1017.3 0.0
01/05:30am 15.8 14.8 14.6 93 0.7 SSW 13 15 7 8 1017.3 - 0.0
01/05:00am 16.6 16.6 15.2 91 0.8 SW 9 11 5 6 1017.1 - 0.0
01/04:30am 16.7 16.0 15.5 93 0.7 SSW 13 15 7 8 1017.2 - 0.0
01/04:00am 16.3 15.6 15.3 94 0.6 SSW 13 15 7 8 1017.0 - 0.0
01/03:30am 16.9 16.7 15.7 93 0.7 SSW 11 15 6 8 1016.9 - 0.0
01/03:00am 17.2 16.7 15.8 91 0.8 S 13 15 7 8 1017.0 1016.9 0.0
01/02:30am 17.3 16.8 15.8 91 0.9 S 13 15 7 8 1017.1 - 0.0
01/02:00am 17.9 17.5 16.2 90 1.0 SSW 13 17 7 9 1017.1 - 0.0
01/01:30am 18.3 18.1 16.6 90 1.0 SSW 13 17 7 9 1017.2 - 0.0
01/01:00am 18.4 18.3 16.9 91 0.9 SSW 13 15 7 8 1017.3 - 0.0
01/12:30am 18.6 18.6 17.1 91 0.9 SSW 13 17 7 9 1017.3 - 0.0
01/12:00am 19.1 19.2 17.5 90 1.0 SW 13 17 7 9 1017.6 1017.5 0.0
 
Date/Time
WST
Temp
°C
App
Temp
°C
Dew
Point
Rel
Hum
%
Delta-T
°C
Wind Press
QNH
hPa
Press
MSL
hPa
Rain
since 9 am
mm
Dir
 
Spd
km/h
Gust
km/h
Spd
kts
Gust
kts
31/11:30pm 19.3 19.2 17.8 91 0.9 SW 15 19 8 10 1017.6 - 0.0
31/11:00pm 18.6 18.3 17.4 93 0.7 SSW 15 17 8 9 1017.6 - 0.0
31/10:30pm 18.8 19.7 17.5 92 0.8 SSW 9 11 5 6 1017.6 - 0.0
31/10:00pm 18.3 18.6 17.0 92 0.8 SW 11 13 6 7 1017.5 - 0.0
31/09:30pm 18.3 18.2 17.0 92 0.8 SSW 13 15 7 8 1017.3 - 0.0
31/09:00pm 18.6 18.9 17.1 91 0.9 SSW 11 13 6 7 1017.2 1017.1 0.0
31/08:30pm 19.1 19.1 17.3 89 1.1 SW 13 13 7 7 1017.1 - 0.0
31/08:00pm 19.3 19.3 17.2 88 1.3 SW 13 15 7 8 1016.8 - 0.0
31/07:30pm 20.6 20.6 17.3 81 2.0 SW 13 17 7 9 1016.5 - 0.0
31/07:00pm 21.0 20.6 17.2 79 2.3 WSW 15 17 8 9 1016.1 - 0.0
31/06:30pm 21.9 20.7 17.0 73 3.0 WSW 19 24 10 13 1015.9 - 0.0
31/06:00pm 22.5 21.3 17.1 71 3.3 WSW 19 26 10 14 1015.7 1015.6 0.0
31/05:30pm 23.7 21.3 16.5 64 4.4 WSW 24 30 13 16 1015.5 - 0.0
31/05:00pm 24.6 22.1 16.1 59 5.2 W 24 32 13 17 1015.4 - 0.0
31/04:30pm 25.6 23.2 16.3 56 5.7 W 24 30 13 16 1015.4 - 0.0
31/04:00pm 26.2 24.1 15.3 51 6.6 W 20 28 11 15 1015.2 - 0.0
31/03:30pm 26.9 24.3 15.0 48 7.2 W 22 26 12 14 1015.2 - 0.0
31/03:00pm 27.7 25.0 14.6 44 7.9 W 22 28 12 15 1015.1 1015.0 0.0
31/02:30pm 27.4 25.0 13.7 43 8.1 W 19 26 10 14 1015.3 - 0.0
31/02:00pm 25.1 25.9 19.0 69 3.9 NE 13 19 7 10 1015.6 - 0.0
31/01:30pm 25.2 26.4 19.1 69 3.9 NNE 11 15 6 8 1015.9 - 0.0
31/01:00pm 24.9 25.9 19.4 71 3.5 ENE 13 15 7 8 1016.3 - 0.0
31/12:30pm 23.6 24.3 18.9 75 3.0 ENE 13 17 7 9 1016.7 - 0.0
31/12:00pm 24.0 24.8 19.0 73 3.2 NE 13 15 7 8 1016.8 1016.7 0.0
31/11:30am 23.7 24.6 19.3 76 2.8 ENE 13 17 7 9 1017.1 - 0.0
31/11:00am 22.8 23.4 18.5 77 2.7 E 13 15 7 8 1017.7 - 0.0
31/10:30am 22.8 24.2 18.7 77 2.6 ENE 9 13 5 7 1018.0 - 0.0
31/10:00am 21.6 22.9 18.4 82 2.0 E 9 11 5 6 1018.1 - 0.0
31/09:30am 20.9 22.6 18.5 86 1.5 ENE 7 11 4 6 1018.1 - 0.0
31/09:22am 21.0 22.9 18.9 88 1.3 ENE 7 9 4 5 1018.1 - 0.0
31/09:20am 20.8 22.8 19.1 90 1.1 NE 7 9 4 5 1018.1 - 0.0
31/09:00am 19.8 23.0 18.8 94 0.6 CALM 0 - 0 - 1018.0 1017.9 0.0
31/08:42am 19.0 22.0 18.4 96 0.4 CALM 0 - 0 - 1018.0 - 0.0
31/08:30am 18.6 21.4 17.9 96 0.4 CALM 0 4 0 2 1018.0 - 0.0
31/08:00am 17.6 20.0 16.9 96 0.4 CALM 0 - 0 - 1017.6 - 0.0
31/07:30am 16.5 17.2 15.6 94 0.5 SW 6 7 3 4 1017.3 - 0.0
31/07:00am 15.5 16.7 14.8 96 0.4 WSW 2 6 1 3 1017.0 - 0.0
31/06:47am 15.5 16.2 14.6 94 0.5 SW 4 7 2 4 1017.0 - 0.0
31/06:45am 15.3 15.6 14.6 96 0.4 SW 6 7 3 4 1017.0 - 0.0
31/06:30am 15.5 15.9 14.8 96 0.4 SW 6 9 3 5 1016.8 - 0.0
31/06:11am 15.4 15.1 14.5 94 0.5 SW 9 13 5 7 1016.7 - 0.0
31/06:10am 15.3 15.1 14.6 96 0.4 SW 9 13 5 7 1016.7 - 0.0
31/06:00am 15.1 15.4 14.4 96 0.4 WSW 6 15 3 8 1016.8 1016.7 0.0
31/05:30am 16.1 17.9 15.6 97 0.3 CALM 0 7 0 4 1016.3 - 0.0
31/05:24am 16.2 16.8 15.7 97 0.3 S 7 13 4 7 1016.3 - 0.0
31/05:07am 16.6 16.2 16.1 97 0.3 S 13 20 7 11 1016.4 - 0.0
31/05:00am 16.7 16.3 16.2 97 0.3 S 13 19 7 10 1016.5 - 0.0
31/04:30am 17.0 16.6 16.3 96 0.4 SSE 13 19 7 10 1016.6 - 0.0
31/04:06am 16.4 15.7 15.5 94 0.5 SSW 13 19 7 10 1016.7 - 0.0
31/04:02am 16.2 15.9 15.5 96 0.4 S 11 19 6 10 1016.6 - 0.0
31/04:00am 16.1 15.8 15.4 96 0.4 SSE 11 19 6 10 1016.7 - 0.0
31/03:30am 15.8 15.7 14.9 94 0.5 SW 9 13 5 7 1016.6 - 0.0
31/03:09am 15.0 14.5 13.9 93 0.6 S 9 15 5 8 1016.6 - 0.0
31/03:00am 14.6 14.4 13.5 93 0.6 S 7 9 4 5 1016.6 1016.5 0.0
31/02:30am 14.8 13.7 13.2 90 0.9 S 11 15 6 8 1016.7 - 0.0
31/02:00am 15.2 14.9 13.2 88 1.1 SSE 7 11 4 6 1017.1 - 0.0
31/01:30am 16.3 15.8 13.8 85 1.4 E 9 11 5 6 1017.3 - 0.0
31/01:00am 17.8 18.0 14.1 79 2.1 NE 6 9 3 5 1017.5 - 0.0
31/12:30am 19.1 19.0 14.0 72 2.9 N 7 9 4 5 1017.7 - 0.0
31/12:00am 18.7 19.8 14.5 76 2.4 N 2 7 1 4 1017.9 1017.8 0.0
 
Date/Time
WST
Temp
°C
App
Temp
°C
Dew
Point
Rel
Hum
%
Delta-T
°C
Wind Press
QNH
hPa
Press
MSL
hPa
Rain
since 9 am
mm
Dir
 
Spd
km/h
Gust
km/h
Spd
kts
Gust
kts
30/11:30pm 18.3 19.8 14.7 79 2.1 CALM 0 0 0 0 1018.3 - 0.0
30/11:00pm 18.1 19.7 15.0 82 1.8 CALM 0 6 0 3 1018.6 - 0.0
30/10:30pm 18.7 20.1 14.5 76 2.4 CALM 0 0 0 0 1018.8 - 0.0
30/10:00pm 19.8 19.6 13.7 68 3.5 W 7 9 4 5 1018.8 - 0.0
30/09:30pm 19.2 18.4 12.8 66 3.6 WSW 9 13 5 7 1019.0 - 0.0
30/09:00pm 19.2 18.2 13.4 69 3.3 WSW 11 19 6 10 1019.0 1018.9 0.0
30/08:30pm 19.0 20.0 16.8 87 1.3 W 7 11 4 6 1018.8 - 0.0

Other Formats:

Comma delimited format used in spreadsheet applications
http://www.bom.gov.au/fwo/IDW60801/IDW60801.94302.axf

JavaScript Object Notation format (JSON) in row-major order
http://www.bom.gov.au/fwo/IDW60801/IDW60801.94302.json